sensor_id;sensor_type;location;lat;lon;timestamp;pressure;altitude;pressure_sealevel;temperature;humidity
57600;BME280;43426;43.594;24.334;2023-08-30T00:00:50;100029.53;;;21.08;100.00
57600;BME280;43426;43.594;24.334;2023-08-30T00:03:16;100054.56;;;21.12;100.00
57600;BME280;43426;43.594;24.334;2023-08-30T00:05:42;100055.78;;;21.26;100.00
57600;BME280;43426;43.594;24.334;2023-08-30T00:08:08;100041.72;;;21.18;100.00
57600;BME280;43426;43.594;24.334;2023-08-30T00:10:34;100052.53;;;21.30;100.00
57600;BME280;43426;43.594;24.334;2023-08-30T00:12:59;100057.75;;;21.31;100.00
57600;BME280;43426;43.594;24.334;2023-08-30T00:15:25;100041.44;;;21.19;100.00
57600;BME280;43426;43.594;24.334;2023-08-30T00:17:51;100062.06;;;21.49;97.47
57600;BME280;43426;43.594;24.334;2023-08-30T00:20:17;100044.00;;;21.26;98.12
57600;BME280;43426;43.594;24.334;2023-08-30T00:22:46;100067.63;;;21.32;99.08
57600;BME280;43426;43.594;24.334;2023-08-30T00:25:12;100049.94;;;21.18;99.62
57600;BME280;43426;43.594;24.334;2023-08-30T00:27:37;100055.63;;;21.11;100.00
57600;BME280;43426;43.594;24.334;2023-08-30T00:30:03;100033.59;;;21.01;100.00
57600;BME280;43426;43.594;24.334;2023-08-30T00:32:29;100049.06;;;21.12;100.00
57600;BME280;43426;43.594;24.334;2023-08-30T00:34:54;100021.94;;;20.88;100.00
57600;BME280;43426;43.594;24.334;2023-08-30T00:37:20;100061.00;;;21.01;100.00
57600;BME280;43426;43.594;24.334;2023-08-30T00:39:45;100059.41;;;21.05;100.00
57600;BME280;43426;43.594;24.334;2023-08-30T00:42:10;100040.41;;;20.98;100.00
57600;BME280;43426;43.594;24.334;2023-08-30T00:44:36;100030.47;;;20.92;100.00
57600;BME280;43426;43.594;24.334;2023-08-30T00:47:02;100060.16;;;21.00;100.00
57600;BME280;43426;43.594;24.334;2023-08-30T00:49:31;100052.91;;;20.89;100.00
57600;BME280;43426;43.594;24.334;2023-08-30T00:51:57;100043.19;;;20.76;100.00
57600;BME280;43426;43.594;24.334;2023-08-30T00:54:24;100022.19;;;20.65;100.00
57600;BME280;43426;43.594;24.334;2023-08-30T00:56:49;100058.53;;;20.55;100.00
57600;BME280;43426;43.594;24.334;2023-08-30T00:59:16;100060.50;;;20.59;100.00
57600;BME280;43426;43.594;24.334;2023-08-30T01:01:41;100065.13;;;20.76;100.00
57600;BME280;43426;43.594;24.334;2023-08-30T01:04:07;100049.63;;;20.48;100.00
57600;BME280;43426;43.594;24.334;2023-08-30T01:06:32;100060.72;;;20.36;100.00
57600;BME280;43426;43.594;24.334;2023-08-30T01:09:01;100098.44;;;20.29;100.00
57600;BME280;43426;43.594;24.334;2023-08-30T01:14:09;100094.16;;;19.99;100.00
57600;BME280;43426;43.594;24.334;2023-08-30T01:16:38;100114.47;;;20.03;100.00
57600;BME280;43426;43.594;24.334;2023-08-30T01:20:05;100114.63;;;19.96;100.00
57600;BME280;43426;43.594;24.334;2023-08-30T01:25:16;100121.94;;;20.24;100.00
57600;BME280;43426;43.594;24.334;2023-08-30T01:27:47;100122.00;;;20.30;100.00
57600;BME280;43426;43.594;24.334;2023-08-30T01:30:13;100100.03;;;20.24;100.00
57600;BME280;43426;43.594;24.334;2023-08-30T01:32:40;100132.41;;;20.28;100.00
57600;BME280;43426;43.594;24.334;2023-08-30T01:35:07;100126.34;;;20.08;100.00
57600;BME280;43426;43.594;24.334;2023-08-30T01:37:33;100144.16;;;20.28;100.00
57600;BME280;43426;43.594;24.334;2023-08-30T01:40:01;100112.13;;;20.12;100.00
57600;BME280;43426;43.594;24.334;2023-08-30T01:42:29;100107.09;;;20.20;100.00
57600;BME280;43426;43.594;24.334;2023-08-30T01:44:56;100094.13;;;20.16;100.00
57600;BME280;43426;43.594;24.334;2023-08-30T01:47:26;100120.53;;;20.22;100.00
57600;BME280;43426;43.594;24.334;2023-08-30T01:49:53;100130.16;;;20.24;100.00
57600;BME280;43426;43.594;24.334;2023-08-30T01:52:20;100097.78;;;20.04;100.00
57600;BME280;43426;43.594;24.334;2023-08-30T01:54:47;100117.44;;;20.18;100.00
57600;BME280;43426;43.594;24.334;2023-08-30T01:57:13;100094.63;;;20.13;100.00
57600;BME280;43426;43.594;24.334;2023-08-30T01:59:38;100115.88;;;20.22;100.00
57600;BME280;43426;43.594;24.334;2023-08-30T02:02:04;100105.59;;;20.13;100.00
57600;BME280;43426;43.594;24.334;2023-08-30T02:04:30;100122.50;;;20.27;100.00
57600;BME280;43426;43.594;24.334;2023-08-30T02:07:31;100124.59;;;20.19;100.00
57600;BME280;43426;43.594;24.334;2023-08-30T02:09:54;100091.91;;;19.96;100.00
57600;BME280;43426;43.594;24.334;2023-08-30T02:12:23;100108.00;;;20.09;100.00
57600;BME280;43426;43.594;24.334;2023-08-30T02:14:50;100109.88;;;20.25;100.00
57600;BME280;43426;43.594;24.334;2023-08-30T02:17:17;100108.84;;;20.10;100.00
57600;BME280;43426;43.594;24.334;2023-08-30T02:19:44;100110.25;;;20.12;100.00
57600;BME280;43426;43.594;24.334;2023-08-30T02:22:10;100074.06;;;19.93;100.00
57600;BME280;43426;43.594;24.334;2023-08-30T02:24:35;100090.00;;;19.96;100.00
57600;BME280;43426;43.594;24.334;2023-08-30T02:27:01;100086.94;;;19.93;100.00
57600;BME280;43426;43.594;24.334;2023-08-30T02:29:27;100072.25;;;19.82;100.00
57600;BME280;43426;43.594;24.334;2023-08-30T02:31:52;100063.78;;;19.83;100.00
57600;BME280;43426;43.594;24.334;2023-08-30T02:34:17;100054.78;;;19.71;100.00
57600;BME280;43426;43.594;24.334;2023-08-30T02:36:43;100080.94;;;19.79;100.00
57600;BME280;43426;43.594;24.334;2023-08-30T02:39:08;100084.88;;;19.83;100.00
57600;BME280;43426;43.594;24.334;2023-08-30T02:41:34;100065.75;;;19.71;100.00
57600;BME280;43426;43.594;24.334;2023-08-30T02:43:59;100074.31;;;19.74;100.00
57600;BME280;43426;43.594;24.334;2023-08-30T02:46:27;100076.53;;;19.78;100.00
57600;BME280;43426;43.594;24.334;2023-08-30T02:48:52;100055.81;;;19.65;100.00
57600;BME280;43426;43.594;24.334;2023-08-30T02:51:18;100062.91;;;19.66;100.00
57600;BME280;43426;43.594;24.334;2023-08-30T02:53:43;100047.81;;;19.46;100.00
57600;BME280;43426;43.594;24.334;2023-08-30T02:56:09;100067.81;;;19.47;100.00
57600;BME280;43426;43.594;24.334;2023-08-30T02:58:36;100088.31;;;19.61;100.00
57600;BME280;43426;43.594;24.334;2023-08-30T03:01:02;100085.72;;;19.54;100.00
57600;BME280;43426;43.594;24.334;2023-08-30T03:03:28;100090.78;;;19.46;100.00
57600;BME280;43426;43.594;24.334;2023-08-30T03:05:53;100070.09;;;19.38;100.00
57600;BME280;43426;43.594;24.334;2023-08-30T03:08:19;100096.59;;;19.66;100.00
57600;BME280;43426;43.594;24.334;2023-08-30T03:10:44;100096.00;;;19.64;100.00
57600;BME280;43426;43.594;24.334;2023-08-30T03:13:09;100087.47;;;19.61;100.00
57600;BME280;43426;43.594;24.334;2023-08-30T03:15:37;100109.03;;;19.74;100.00
57600;BME280;43426;43.594;24.334;2023-08-30T03:18:03;100107.97;;;19.75;100.00
57600;BME280;43426;43.594;24.334;2023-08-30T03:20:28;100111.16;;;19.84;100.00
57600;BME280;43426;43.594;24.334;2023-08-30T03:22:56;100116.88;;;19.82;100.00
57600;BME280;43426;43.594;24.334;2023-08-30T03:25:28;100118.34;;;19.73;100.00
57600;BME280;43426;43.594;24.334;2023-08-30T03:27:54;100095.00;;;19.53;100.00
57600;BME280;43426;43.594;24.334;2023-08-30T03:30:19;100096.09;;;19.52;100.00
57600;BME280;43426;43.594;24.334;2023-08-30T03:32:44;100118.34;;;19.73;100.00
57600;BME280;43426;43.594;24.334;2023-08-30T03:35:10;100130.13;;;19.73;100.00
57600;BME280;43426;43.594;24.334;2023-08-30T03:37:35;100134.47;;;19.86;100.00
57600;BME280;43426;43.594;24.334;2023-08-30T03:40:01;100105.47;;;19.73;100.00
57600;BME280;43426;43.594;24.334;2023-08-30T03:42:29;100115.41;;;19.92;100.00
57600;BME280;43426;43.594;24.334;2023-08-30T03:44:54;100116.22;;;19.92;100.00
57600;BME280;43426;43.594;24.334;2023-08-30T03:47:20;100106.69;;;19.95;100.00
57600;BME280;43426;43.594;24.334;2023-08-30T03:49:45;100114.88;;;19.95;100.00
57600;BME280;43426;43.594;24.334;2023-08-30T03:52:11;100092.72;;;19.79;100.00
57600;BME280;43426;43.594;24.334;2023-08-30T03:54:36;100115.25;;;19.98;100.00
57600;BME280;43426;43.594;24.334;2023-08-30T03:57:01;100100.63;;;19.93;100.00
57600;BME280;43426;43.594;24.334;2023-08-30T03:59:28;100114.06;;;20.11;100.00
57600;BME280;43426;43.594;24.334;2023-08-30T04:01:53;100110.75;;;20.09;100.00
57600;BME280;43426;43.594;24.334;2023-08-30T04:04:19;100089.75;;;19.98;100.00
57600;BME280;43426;43.594;24.334;2023-08-30T04:06:44;100108.00;;;20.26;100.00
57600;BME280;43426;43.594;24.334;2023-08-30T04:09:10;100116.97;;;20.21;100.00
57600;BME280;43426;43.594;24.334;2023-08-30T04:11:35;100124.09;;;20.22;100.00
57600;BME280;43426;43.594;24.334;2023-08-30T04:14:00;100100.97;;;20.13;100.00
57600;BME280;43426;43.594;24.334;2023-08-30T04:16:26;100114.38;;;20.32;100.00
57600;BME280;43426;43.594;24.334;2023-08-30T04:18:51;100114.59;;;20.47;100.00
57600;BME280;43426;43.594;24.334;2023-08-30T04:21:17;100084.09;;;20.21;100.00
57600;BME280;43426;43.594;24.334;2023-08-30T04:23:42;100101.09;;;20.23;100.00
57600;BME280;43426;43.594;24.334;2023-08-30T04:26:07;100101.19;;;20.29;100.00
57600;BME280;43426;43.594;24.334;2023-08-30T04:28:33;100101.84;;;20.36;100.00
57600;BME280;43426;43.594;24.334;2023-08-30T04:30:58;100085.91;;;20.33;100.00
57600;BME280;43426;43.594;24.334;2023-08-30T04:33:24;100092.91;;;20.46;100.00
57600;BME280;43426;43.594;24.334;2023-08-30T04:35:54;100089.50;;;20.55;100.00
57600;BME280;43426;43.594;24.334;2023-08-30T04:38:22;100085.38;;;20.75;100.00
57600;BME280;43426;43.594;24.334;2023-08-30T04:40:48;100082.63;;;20.75;100.00
57600;BME280;43426;43.594;24.334;2023-08-30T04:43:14;100094.94;;;20.95;100.00
57600;BME280;43426;43.594;24.334;2023-08-30T04:45:39;100095.28;;;20.98;100.00
57600;BME280;43426;43.594;24.334;2023-08-30T04:48:05;100094.56;;;21.08;100.00
57600;BME280;43426;43.594;24.334;2023-08-30T04:50:31;100084.72;;;21.12;100.00
57600;BME280;43426;43.594;24.334;2023-08-30T04:52:56;100089.75;;;21.20;100.00
57600;BME280;43426;43.594;24.334;2023-08-30T04:55:24;100076.78;;;21.38;100.00
57600;BME280;43426;43.594;24.334;2023-08-30T04:57:50;100107.16;;;21.58;100.00
57600;BME280;43426;43.594;24.334;2023-08-30T05:00:15;100068.34;;;21.50;100.00
57600;BME280;43426;43.594;24.334;2023-08-30T05:02:41;100101.31;;;21.77;100.00
57600;BME280;43426;43.594;24.334;2023-08-30T05:05:08;100097.88;;;21.97;99.92
57600;BME280;43426;43.594;24.334;2023-08-30T05:07:34;100073.69;;;21.94;99.37
57600;BME280;43426;43.594;24.334;2023-08-30T05:09:59;100082.19;;;22.30;96.36
57600;BME280;43426;43.594;24.334;2023-08-30T05:12:25;100071.41;;;22.23;95.48
57600;BME280;43426;43.594;24.334;2023-08-30T05:14:50;100103.56;;;22.60;94.86
57600;BME280;43426;43.594;24.334;2023-08-30T05:17:16;100109.19;;;22.86;93.39
57600;BME280;43426;43.594;24.334;2023-08-30T05:19:41;100111.25;;;23.22;90.69
57600;BME280;43426;43.594;24.334;2023-08-30T05:22:06;100117.94;;;23.52;87.66
57600;BME280;43426;43.594;24.334;2023-08-30T05:24:32;100108.03;;;23.45;87.40
57600;BME280;43426;43.594;24.334;2023-08-30T05:26:58;100126.44;;;23.40;87.73
57600;BME280;43426;43.594;24.334;2023-08-30T05:29:27;100097.25;;;23.39;85.71
57600;BME280;43426;43.594;24.334;2023-08-30T05:31:52;100118.16;;;23.40;86.28
57600;BME280;43426;43.594;24.334;2023-08-30T05:34:18;100094.78;;;23.32;86.40
57600;BME280;43426;43.594;24.334;2023-08-30T05:36:46;100112.66;;;23.29;86.58
57600;BME280;43426;43.594;24.334;2023-08-30T05:39:11;100085.38;;;23.23;87.31
57600;BME280;43426;43.594;24.334;2023-08-30T05:41:37;100083.47;;;23.44;85.93
57600;BME280;43426;43.594;24.334;2023-08-30T05:44:03;100100.28;;;23.48;85.60
57600;BME280;43426;43.594;24.334;2023-08-30T05:46:29;100107.22;;;23.55;86.61
57600;BME280;43426;43.594;24.334;2023-08-30T05:48:54;100093.44;;;23.71;86.60
57600;BME280;43426;43.594;24.334;2023-08-30T05:51:20;100085.47;;;23.95;85.20
57600;BME280;43426;43.594;24.334;2023-08-30T05:53:45;100100.84;;;24.32;82.53
57600;BME280;43426;43.594;24.334;2023-08-30T05:56:10;100106.34;;;24.42;82.83
57600;BME280;43426;43.594;24.334;2023-08-30T05:58:36;100080.97;;;24.40;81.42
57600;BME280;43426;43.594;24.334;2023-08-30T06:01:03;100080.97;;;24.61;80.86
57600;BME280;43426;43.594;24.334;2023-08-30T06:03:29;100097.94;;;24.89;80.12
57600;BME280;43426;43.594;24.334;2023-08-30T06:05:54;100110.78;;;25.14;79.20
57600;BME280;43426;43.594;24.334;2023-08-30T06:08:19;100088.91;;;25.28;77.34
57600;BME280;43426;43.594;24.334;2023-08-30T06:10:45;100110.91;;;25.48;77.04
57600;BME280;43426;43.594;24.334;2023-08-30T06:13:11;100114.59;;;25.73;74.50
57600;BME280;43426;43.594;24.334;2023-08-30T06:15:36;100117.66;;;25.72;76.73
57600;BME280;43426;43.594;24.334;2023-08-30T06:18:04;100118.16;;;25.74;74.05
57600;BME280;43426;43.594;24.334;2023-08-30T06:20:29;100102.19;;;25.71;75.80
57600;BME280;43426;43.594;24.334;2023-08-30T06:22:57;100083.84;;;25.85;75.55
57600;BME280;43426;43.594;24.334;2023-08-30T06:25:23;100087.59;;;25.94;74.31
57600;BME280;43426;43.594;24.334;2023-08-30T06:27:57;100100.03;;;26.02;71.83
57600;BME280;43426;43.594;24.334;2023-08-30T06:30:27;100098.31;;;26.06;73.31
57600;BME280;43426;43.594;24.334;2023-08-30T06:32:53;100113.34;;;26.24;71.96
57600;BME280;43426;43.594;24.334;2023-08-30T06:35:18;100121.50;;;26.40;73.20
57600;BME280;43426;43.594;24.334;2023-08-30T06:37:46;100124.50;;;26.67;72.68
57600;BME280;43426;43.594;24.334;2023-08-30T06:40:12;100118.34;;;26.76;72.72
57600;BME280;43426;43.594;24.334;2023-08-30T06:42:37;100105.38;;;26.95;70.25
57600;BME280;43426;43.594;24.334;2023-08-30T06:45:03;100103.66;;;26.99;69.32
57600;BME280;43426;43.594;24.334;2023-08-30T06:47:29;100116.34;;;27.06;65.75
57600;BME280;43426;43.594;24.334;2023-08-30T06:49:55;100122.31;;;27.13;65.11
57600;BME280;43426;43.594;24.334;2023-08-30T06:52:20;100126.66;;;27.19;67.30
57600;BME280;43426;43.594;24.334;2023-08-30T06:54:46;100122.16;;;27.04;66.80
57600;BME280;43426;43.594;24.334;2023-08-30T06:57:11;100150.78;;;26.94;65.74
57600;BME280;43426;43.594;24.334;2023-08-30T06:59:37;100136.34;;;26.49;67.69
57600;BME280;43426;43.594;24.334;2023-08-30T07:02:02;100146.66;;;26.43;68.13
57600;BME280;43426;43.594;24.334;2023-08-30T07:04:28;100157.88;;;26.52;68.60
57600;BME280;43426;43.594;24.334;2023-08-30T07:06:54;100160.34;;;26.29;67.13
57600;BME280;43426;43.594;24.334;2023-08-30T07:09:19;100161.47;;;26.23;68.47
57600;BME280;43426;43.594;24.334;2023-08-30T07:11:47;100138.22;;;26.29;68.17
57600;BME280;43426;43.594;24.334;2023-08-30T07:14:13;100140.81;;;26.45;68.75
57600;BME280;43426;43.594;24.334;2023-08-30T07:16:40;100130.75;;;26.83;69.35
57600;BME280;43426;43.594;24.334;2023-08-30T07:19:05;100150.84;;;27.38;67.06
57600;BME280;43426;43.594;24.334;2023-08-30T07:21:31;100152.84;;;27.70;66.05
57600;BME280;43426;43.594;24.334;2023-08-30T07:23:56;100149.97;;;27.94;64.94
57600;BME280;43426;43.594;24.334;2023-08-30T07:26:22;100132.38;;;28.04;64.67
57600;BME280;43426;43.594;24.334;2023-08-30T07:28:47;100127.19;;;28.30;65.42
57600;BME280;43426;43.594;24.334;2023-08-30T07:31:13;100111.59;;;28.62;62.96
57600;BME280;43426;43.594;24.334;2023-08-30T07:33:44;100127.44;;;29.17;61.18
57600;BME280;43426;43.594;24.334;2023-08-30T07:36:09;100128.41;;;29.49;56.65
57600;BME280;43426;43.594;24.334;2023-08-30T07:38:37;100132.31;;;29.48;55.00
57600;BME280;43426;43.594;24.334;2023-08-30T07:41:03;100128.75;;;29.70;55.97
57600;BME280;43426;43.594;24.334;2023-08-30T07:43:31;100124.94;;;29.66;55.56
57600;BME280;43426;43.594;24.334;2023-08-30T07:45:58;100114.38;;;29.91;54.59
57600;BME280;43426;43.594;24.334;2023-08-30T07:48:24;100123.44;;;30.05;52.26
57600;BME280;43426;43.594;24.334;2023-08-30T07:50:49;100139.97;;;30.02;49.98
57600;BME280;43426;43.594;24.334;2023-08-30T07:53:15;100134.34;;;29.57;51.76
57600;BME280;43426;43.594;24.334;2023-08-30T07:55:47;100139.72;;;29.53;52.42
57600;BME280;43426;43.594;24.334;2023-08-30T07:58:13;100135.03;;;29.40;53.82
57600;BME280;43426;43.594;24.334;2023-08-30T08:00:38;100131.59;;;29.79;52.38
57600;BME280;43426;43.594;24.334;2023-08-30T08:03:04;100135.59;;;30.10;52.55
57600;BME280;43426;43.594;24.334;2023-08-30T08:05:29;100109.72;;;30.09;52.67
57600;BME280;43426;43.594;24.334;2023-08-30T08:07:59;100136.53;;;30.36;51.73
57600;BME280;43426;43.594;24.334;2023-08-30T08:10:25;100109.44;;;30.19;52.89
57600;BME280;43426;43.594;24.334;2023-08-30T08:12:51;100125.34;;;30.19;51.78
57600;BME280;43426;43.594;24.334;2023-08-30T08:15:17;100127.91;;;30.38;51.92
57600;BME280;43426;43.594;24.334;2023-08-30T08:17:42;100082.72;;;30.41;51.82
57600;BME280;43426;43.594;24.334;2023-08-30T08:20:08;100109.66;;;31.03;49.62
57600;BME280;43426;43.594;24.334;2023-08-30T08:22:34;100108.72;;;31.43;48.77
57600;BME280;43426;43.594;24.334;2023-08-30T08:24:59;100122.22;;;31.58;47.94
57600;BME280;43426;43.594;24.334;2023-08-30T08:27:25;100116.16;;;31.65;46.75
57600;BME280;43426;43.594;24.334;2023-08-30T08:29:50;100099.03;;;31.58;45.72
57600;BME280;43426;43.594;24.334;2023-08-30T08:32:16;100127.44;;;31.86;46.15
57600;BME280;43426;43.594;24.334;2023-08-30T08:34:41;100120.69;;;31.96;46.72
57600;BME280;43426;43.594;24.334;2023-08-30T08:37:06;100123.47;;;31.96;45.49
57600;BME280;43426;43.594;24.334;2023-08-30T08:39:32;100128.88;;;32.19;43.46
57600;BME280;43426;43.594;24.334;2023-08-30T08:42:01;100130.50;;;32.02;44.83
57600;BME280;43426;43.594;24.334;2023-08-30T08:44:31;100130.72;;;31.97;44.95
57600;BME280;43426;43.594;24.334;2023-08-30T08:46:58;100109.84;;;32.03;45.66
57600;BME280;43426;43.594;24.334;2023-08-30T08:49:25;100088.59;;;32.37;44.39
57600;BME280;43426;43.594;24.334;2023-08-30T08:51:53;100097.59;;;32.82;44.86
57600;BME280;43426;43.594;24.334;2023-08-30T08:54:22;100091.88;;;33.29;43.75
57600;BME280;43426;43.594;24.334;2023-08-30T08:56:48;100088.28;;;33.20;42.37
57600;BME280;43426;43.594;24.334;2023-08-30T08:59:13;100097.69;;;32.94;43.27
57600;BME280;43426;43.594;24.334;2023-08-30T09:01:39;100097.50;;;32.69;43.34
57600;BME280;43426;43.594;24.334;2023-08-30T09:04:11;100099.78;;;32.29;44.03
57600;BME280;43426;43.594;24.334;2023-08-30T09:06:37;100118.03;;;32.08;45.94
57600;BME280;43426;43.594;24.334;2023-08-30T09:09:06;100122.69;;;31.69;47.29
57600;BME280;43426;43.594;24.334;2023-08-30T09:11:33;100112.38;;;31.61;46.13
57600;BME280;43426;43.594;24.334;2023-08-30T09:13:59;100098.06;;;31.45;47.49
57600;BME280;43426;43.594;24.334;2023-08-30T09:16:27;100098.22;;;31.31;46.67
57600;BME280;43426;43.594;24.334;2023-08-30T09:18:59;100095.22;;;30.52;48.73
57600;BME280;43426;43.594;24.334;2023-08-30T09:21:25;100093.13;;;30.67;48.91
57600;BME280;43426;43.594;24.334;2023-08-30T09:26:23;100095.06;;;31.06;48.65
57600;BME280;43426;43.594;24.334;2023-08-30T09:28:48;100068.81;;;30.99;48.16
57600;BME280;43426;43.594;24.334;2023-08-30T09:31:17;100083.13;;;31.23;49.15
57600;BME280;43426;43.594;24.334;2023-08-30T09:33:46;100063.78;;;31.27;47.10
57600;BME280;43426;43.594;24.334;2023-08-30T09:36:15;100053.44;;;31.19;47.27
57600;BME280;43426;43.594;24.334;2023-08-30T09:38:40;100064.44;;;31.50;48.19
57600;BME280;43426;43.594;24.334;2023-08-30T09:41:06;100068.78;;;32.13;47.21
57600;BME280;43426;43.594;24.334;2023-08-30T09:43:32;100081.34;;;32.36;43.21
57600;BME280;43426;43.594;24.334;2023-08-30T09:46:03;100085.53;;;32.60;43.22
57600;BME280;43426;43.594;24.334;2023-08-30T09:48:31;100072.75;;;32.50;42.65
57600;BME280;43426;43.594;24.334;2023-08-30T09:50:58;100097.50;;;32.69;41.43
57600;BME280;43426;43.594;24.334;2023-08-30T09:53:28;100096.06;;;32.93;38.31
57600;BME280;43426;43.594;24.334;2023-08-30T09:55:55;100089.53;;;32.80;38.14
57600;BME280;43426;43.594;24.334;2023-08-30T09:58:21;100087.03;;;32.87;39.66
57600;BME280;43426;43.594;24.334;2023-08-30T10:03:42;100084.31;;;33.30;37.81
57600;BME280;43426;43.594;24.334;2023-08-30T10:06:10;100075.56;;;33.52;35.18
57600;BME280;43426;43.594;24.334;2023-08-30T10:08:37;100088.69;;;33.73;35.41
57600;BME280;43426;43.594;24.334;2023-08-30T10:11:23;100065.63;;;34.22;35.74
57600;BME280;43426;43.594;24.334;2023-08-30T10:14:27;100099.06;;;35.01;35.79
57600;BME280;43426;43.594;24.334;2023-08-30T10:20:05;100071.03;;;35.42;32.92
57600;BME280;43426;43.594;24.334;2023-08-30T10:22:51;100083.06;;;35.55;31.34
57600;BME280;43426;43.594;24.334;2023-08-30T10:25:20;100078.81;;;35.61;30.75
57600;BME280;43426;43.594;24.334;2023-08-30T10:27:48;100074.50;;;35.23;31.74
57600;BME280;43426;43.594;24.334;2023-08-30T10:30:15;100067.50;;;35.04;31.18
57600;BME280;43426;43.594;24.334;2023-08-30T10:32:43;100066.72;;;34.67;29.75
57600;BME280;43426;43.594;24.334;2023-08-30T10:35:13;100062.53;;;34.73;31.25
57600;BME280;43426;43.594;24.334;2023-08-30T10:37:39;100061.47;;;34.65;29.95
57600;BME280;43426;43.594;24.334;2023-08-30T10:40:05;100044.66;;;34.53;29.59
57600;BME280;43426;43.594;24.334;2023-08-30T10:42:31;100030.63;;;34.77;29.15
57600;BME280;43426;43.594;24.334;2023-08-30T10:45:10;100050.97;;;34.62;28.65
57600;BME280;43426;43.594;24.334;2023-08-30T10:47:36;100021.75;;;34.26;28.28
57600;BME280;43426;43.594;24.334;2023-08-30T10:50:11;100046.66;;;34.52;28.02
57600;BME280;43426;43.594;24.334;2023-08-30T10:52:37;100041.03;;;34.65;27.19
57600;BME280;43426;43.594;24.334;2023-08-30T10:55:06;100043.66;;;35.10;27.01
57600;BME280;43426;43.594;24.334;2023-08-30T10:57:35;100039.97;;;35.35;27.49
57600;BME280;43426;43.594;24.334;2023-08-30T11:00:22;100014.19;;;35.17;27.12
57600;BME280;43426;43.594;24.334;2023-08-30T11:02:49;100021.84;;;35.04;27.60
57600;BME280;43426;43.594;24.334;2023-08-30T11:05:16;100031.38;;;35.15;28.00
57600;BME280;43426;43.594;24.334;2023-08-30T11:07:43;99992.63;;;35.05;28.51
57600;BME280;43426;43.594;24.334;2023-08-30T11:10:09;100021.81;;;35.44;29.66
57600;BME280;43426;43.594;24.334;2023-08-30T11:12:35;100024.75;;;35.48;28.60
57600;BME280;43426;43.594;24.334;2023-08-30T11:15:01;100024.56;;;35.57;27.70
57600;BME280;43426;43.594;24.334;2023-08-30T11:17:27;100009.13;;;35.63;28.72
57600;BME280;43426;43.594;24.334;2023-08-30T11:20:25;100023.88;;;36.04;28.19
57600;BME280;43426;43.594;24.334;2023-08-30T11:22:55;100000.41;;;35.68;27.57
57600;BME280;43426;43.594;24.334;2023-08-30T11:25:23;100004.31;;;35.63;28.13
57600;BME280;43426;43.594;24.334;2023-08-30T11:27:49;99999.78;;;35.75;27.77
57600;BME280;43426;43.594;24.334;2023-08-30T11:30:15;100019.13;;;36.08;26.51
57600;BME280;43426;43.594;24.334;2023-08-30T11:32:41;99983.50;;;35.65;26.74
57600;BME280;43426;43.594;24.334;2023-08-30T11:35:10;100010.34;;;36.26;27.68
57600;BME280;43426;43.594;24.334;2023-08-30T11:37:35;99997.63;;;36.48;27.56
57600;BME280;43426;43.594;24.334;2023-08-30T11:40:02;100016.03;;;36.45;27.94
57600;BME280;43426;43.594;24.334;2023-08-30T11:42:31;99985.25;;;36.85;26.36
57600;BME280;43426;43.594;24.334;2023-08-30T11:44:58;99989.69;;;37.05;27.33
57600;BME280;43426;43.594;24.334;2023-08-30T11:47:25;99980.53;;;37.08;27.80
57600;BME280;43426;43.594;24.334;2023-08-30T11:49:57;100001.66;;;36.83;26.28
57600;BME280;43426;43.594;24.334;2023-08-30T11:52:26;99982.31;;;36.45;27.57
57600;BME280;43426;43.594;24.334;2023-08-30T11:54:52;99989.84;;;36.57;26.85
57600;BME280;43426;43.594;24.334;2023-08-30T11:57:20;99974.94;;;36.57;28.19
57600;BME280;43426;43.594;24.334;2023-08-30T11:59:46;99993.19;;;36.98;27.54
57600;BME280;43426;43.594;24.334;2023-08-30T12:02:13;99981.31;;;37.09;27.37
57600;BME280;43426;43.594;24.334;2023-08-30T12:04:46;99964.00;;;36.87;26.97
57600;BME280;43426;43.594;24.334;2023-08-30T12:07:25;99974.78;;;36.50;28.10
57600;BME280;43426;43.594;24.334;2023-08-30T12:09:51;99965.31;;;36.22;28.35
57600;BME280;43426;43.594;24.334;2023-08-30T12:12:17;99963.84;;;35.80;30.07
57600;BME280;43426;43.594;24.334;2023-08-30T12:14:42;99962.81;;;35.57;29.95
57600;BME280;43426;43.594;24.334;2023-08-30T12:17:08;99981.66;;;35.56;30.43
57600;BME280;43426;43.594;24.334;2023-08-30T12:19:36;99974.19;;;36.08;29.22
57600;BME280;43426;43.594;24.334;2023-08-30T12:22:05;99974.84;;;36.34;28.20
57600;BME280;43426;43.594;24.334;2023-08-30T12:24:46;99948.28;;;36.15;28.90
57600;BME280;43426;43.594;24.334;2023-08-30T12:27:15;99950.75;;;36.01;29.15
57600;BME280;43426;43.594;24.334;2023-08-30T12:29:42;99968.56;;;36.08;28.41
57600;BME280;43426;43.594;24.334;2023-08-30T12:32:08;99966.13;;;36.07;28.86
57600;BME280;43426;43.594;24.334;2023-08-30T12:34:33;99967.75;;;36.24;28.69
57600;BME280;43426;43.594;24.334;2023-08-30T12:36:59;99949.44;;;36.46;28.80
57600;BME280;43426;43.594;24.334;2023-08-30T12:39:24;99944.06;;;36.76;28.28
57600;BME280;43426;43.594;24.334;2023-08-30T12:41:50;99939.91;;;36.70;29.06
57600;BME280;43426;43.594;24.334;2023-08-30T12:44:15;99960.75;;;36.85;26.64
57600;BME280;43426;43.594;24.334;2023-08-30T12:46:41;99962.56;;;36.26;27.44
57600;BME280;43426;43.594;24.334;2023-08-30T12:49:06;99952.28;;;36.14;27.95
57600;BME280;43426;43.594;24.334;2023-08-30T12:51:32;99915.66;;;36.26;29.09